Time;durP1;ratioP1;P1;durP2;ratioP2;P2;SDS_P1;SDS_P2;PMS_P1;PMS_P2;Temp;Humidity;BMP_temperature;BMP_pressure;BME280_temperature;BME280_humidity;BME280_pressure;Samples;Min_cycle;Max_cycle;Signal;HPM_P1;HPM_P2
2023/06/10 00:02:16;;;;;;;6.60;6.00;;;;;;;;;;5051939;28;43419;-23
2023/06/10 00:04:46;;;;;;;6.15;5.65;;;;;;;;;;5064449;28;41478;-23
2023/06/10 00:07:14;;;;;;;9.35;6.07;;;;;;;;;;5050302;28;42682;-28
2023/06/10 00:09:42;;;;;;;6.68;6.10;;;;;;;;;;5046353;28;42790;-23
2023/06/10 00:12:10;;;;;;;7.10;6.30;;;;;;;;;;5062924;28;41176;-23
2023/06/10 00:14:38;;;;;;;6.60;6.00;;;;;;;;;;5052068;28;43498;-23
2023/06/10 00:17:09;;;;;;;6.40;5.80;;;;;;;;;;5064716;28;43948;-23
2023/06/10 00:19:41;;;;;;;6.35;5.75;;;;;;;;;;5061613;28;40199;-25
2023/06/10 00:22:11;;;;;;;6.55;6.00;;;;;;;;;;5055701;28;42780;-23
2023/06/10 00:24:40;;;;;;;7.82;6.28;;;;;;;;;;5050996;28;41287;-23
2023/06/10 00:27:08;;;;;;;6.68;5.97;;;;;;;;;;5057792;28;43234;-24
2023/06/10 00:29:36;;;;;;;6.68;5.95;;;;;;;;;;5051671;28;43287;-24
2023/06/10 00:32:04;;;;;;;6.72;6.10;;;;;;;;;;5063199;28;40273;-23
2023/06/10 00:34:34;;;;;;;6.35;5.80;;;;;;;;;;5063382;28;43792;-23
2023/06/10 00:37:02;;;;;;;6.10;5.60;;;;;;;;;;5048733;28;43114;-24
2023/06/10 00:39:31;;;;;;;6.28;5.68;;;;;;;;;;5053433;28;40521;-23
2023/06/10 00:41:59;;;;;;;5.93;5.43;;;;;;;;;;5061320;28;42349;-22
2023/06/10 00:44:27;;;;;;;6.20;5.68;;;;;;;;;;5044514;28;42013;-23
2023/06/10 00:46:55;;;;;;;5.63;5.13;;;;;;;;;;5042292;28;42468;-23
2023/06/10 00:49:24;;;;;;;6.30;5.80;;;;;;;;;;5046686;28;43557;-24
2023/06/10 00:51:52;;;;;;;6.53;5.63;;;;;;;;;;5052050;28;40209;-23
2023/06/10 00:54:20;;;;;;;6.95;5.18;;;;;;;;;;5057495;28;43723;-23
2023/06/10 00:56:49;;;;;;;6.32;5.75;;;;;;;;;;5060664;28;44162;-23
2023/06/10 00:59:18;;;;;;;5.60;5.10;;;;;;;;;;5045282;28;38282;-23
2023/06/10 01:01:46;;;;;;;6.28;5.68;;;;;;;;;;5065301;28;43284;-23
2023/06/10 01:04:19;;;;;;;5.82;5.32;;;;;;;;;;5031748;28;41506;-23
2023/06/10 01:06:49;;;;;;;5.88;5.32;;;;;;;;;;5062135;28;40105;-23
2023/06/10 01:09:19;;;;;;;6.03;5.53;;;;;;;;;;5045346;28;42181;-23
2023/06/10 01:11:51;;;;;;;6.30;5.70;;;;;;;;;;5063551;28;41385;-23
2023/06/10 01:14:20;;;;;;;5.40;4.90;;;;;;;;;;5045281;28;41247;-23
2023/06/10 01:16:49;;;;;;;5.80;5.30;;;;;;;;;;5065254;28;44613;-23
2023/06/10 01:19:18;;;;;;;5.93;5.32;;;;;;;;;;5062077;28;41329;-23
2023/06/10 01:21:48;;;;;;;7.20;5.80;;;;;;;;;;5033813;28;41293;-25
2023/06/10 01:24:19;;;;;;;5.78;5.28;;;;;;;;;;5047294;28;42011;-23
2023/06/10 01:26:47;;;;;;;6.22;5.63;;;;;;;;;;5067813;28;41245;-23
2023/06/10 01:29:16;;;;;;;5.68;5.18;;;;;;;;;;5066702;28;44384;-25
2023/06/10 01:31:45;;;;;;;5.97;5.40;;;;;;;;;;5052923;28;40192;-23
2023/06/10 01:34:14;;;;;;;6.10;5.50;;;;;;;;;;5066499;28;42824;-23
2023/06/10 01:36:42;;;;;;;5.57;5.05;;;;;;;;;;5067989;28;42950;-23
2023/06/10 01:39:12;;;;;;;5.85;5.30;;;;;;;;;;5049600;28;39103;-23
2023/06/10 01:41:42;;;;;;;6.43;5.82;;;;;;;;;;5034328;28;42390;-23
2023/06/10 01:44:10;;;;;;;5.60;5.07;;;;;;;;;;5037994;28;41909;-25
2023/06/10 01:46:40;;;;;;;6.30;5.30;;;;;;;;;;5048886;28;38780;-23
2023/06/10 01:49:08;;;;;;;6.40;5.78;;;;;;;;;;5060452;28;43803;-25
2023/06/10 01:51:36;;;;;;;6.13;5.07;;;;;;;;;;5062548;28;41391;-23
2023/06/10 01:54:04;;;;;;;5.68;5.10;;;;;;;;;;5048522;28;42032;-23
2023/06/10 01:56:33;;;;;;;7.13;5.10;;;;;;;;;;5063377;28;43107;-22
2023/06/10 01:59:02;;;;;;;5.53;4.97;;;;;;;;;;5047614;28;39337;-24
2023/06/10 02:01:30;;;;;;;5.95;5.38;;;;;;;;;;5045077;28;41924;-23
2023/06/10 02:03:58;;;;;;;5.63;5.13;;;;;;;;;;5065773;28;44479;-23
2023/06/10 02:06:26;;;;;;;5.10;4.70;;;;;;;;;;5067060;28;41309;-23
2023/06/10 02:08:54;;;;;;;5.18;4.68;;;;;;;;;;5048507;28;41855;-23
2023/06/10 02:11:22;;;;;;;6.13;5.53;;;;;;;;;;5047277;28;43338;-23
2023/06/10 02:13:53;;;;;;;5.63;5.10;;;;;;;;;;5048917;28;41990;-23
2023/06/10 02:16:21;;;;;;;5.90;5.30;;;;;;;;;;5064658;28;44289;-23
2023/06/10 02:18:49;;;;;;;6.07;5.03;;;;;;;;;;5067882;28;39876;-23
2023/06/10 02:21:17;;;;;;;5.55;4.80;;;;;;;;;;5060614;28;42417;-23
2023/06/10 02:23:45;;;;;;;6.43;5.32;;;;;;;;;;5047946;28;45553;-23
2023/06/10 02:26:13;;;;;;;5.55;5.03;;;;;;;;;;5066204;28;41959;-23
2023/06/10 02:28:43;;;;;;;5.55;4.85;;;;;;;;;;5067254;28;43260;-24
2023/06/10 02:31:12;;;;;;;6.60;5.25;;;;;;;;;;5064898;28;43597;-23
2023/06/10 02:33:40;;;;;;;5.45;4.55;;;;;;;;;;5067586;28;40709;-23
2023/06/10 02:36:12;;;;;;;5.47;4.93;;;;;;;;;;5039061;28;42212;-23
2023/06/10 02:38:41;;;;;;;7.18;4.85;;;;;;;;;;5048633;28;39935;-28
2023/06/10 02:41:09;;;;;;;6.32;4.90;;;;;;;;;;5033147;28;42272;-26
2023/06/10 02:43:37;;;;;;;6.57;5.20;;;;;;;;;;5048355;28;42913;-23
2023/06/10 02:46:05;;;;;;;7.28;5.10;;;;;;;;;;5045313;28;40217;-24
2023/06/10 02:48:35;;;;;;;5.00;4.50;;;;;;;;;;5059489;28;43265;-29
2023/06/10 02:51:03;;;;;;;5.97;4.90;;;;;;;;;;5046536;28;41694;-24
2023/06/10 02:53:39;;;;;;;5.20;4.70;;;;;;;;;;5035492;28;39135;-22
2023/06/10 02:56:11;;;;;;;5.32;4.60;;;;;;;;;;5044967;28;41542;-23
2023/06/10 02:58:39;;;;;;;5.53;4.93;;;;;;;;;;5039161;28;39247;-23
2023/06/10 03:01:10;;;;;;;5.18;4.68;;;;;;;;;;5047444;28;41563;-23
2023/06/10 03:03:50;;;;;;;6.18;4.70;;;;;;;;;;5047973;28;41725;-23
2023/06/10 03:06:18;;;;;;;5.75;4.80;;;;;;;;;;5046116;28;39839;-23
2023/06/10 03:08:46;;;;;;;4.95;4.45;;;;;;;;;;5047999;28;42167;-23
2023/06/10 03:11:19;;;;;;;5.72;5.13;;;;;;;;;;5046500;28;42206;-23
2023/06/10 03:13:48;;;;;;;5.53;5.03;;;;;;;;;;5024999;28;39658;-23
2023/06/10 03:16:18;;;;;;;5.70;5.00;;;;;;;;;;5026756;28;41334;-23
2023/06/10 03:18:47;;;;;;;5.30;4.80;;;;;;;;;;5028135;28;42768;-23
2023/06/10 03:21:16;;;;;;;5.45;4.85;;;;;;;;;;5026483;28;42122;-25
2023/06/10 03:23:44;;;;;;;6.70;4.97;;;;;;;;;;5027498;28;41824;-23
2023/06/10 03:26:14;;;;;;;5.35;4.82;;;;;;;;;;5044704;28;40438;-23
2023/06/10 03:28:44;;;;;;;4.50;4.10;;;;;;;;;;5020413;28;42811;-23
2023/06/10 03:31:12;;;;;;;5.82;5.07;;;;;;;;;;5027342;28;41935;-23
2023/06/10 03:33:41;;;;;;;4.90;4.50;;;;;;;;;;5019465;28;39290;-23
2023/06/10 03:36:09;;;;;;;4.97;4.50;;;;;;;;;;5026092;28;41462;-24
2023/06/10 03:38:39;;;;;;;6.30;4.85;;;;;;;;;;5025727;28;42031;-25
2023/06/10 03:41:08;;;;;;;5.28;4.40;;;;;;;;;;5026860;28;42811;-23
2023/06/10 03:43:38;;;;;;;4.60;4.20;;;;;;;;;;5018514;28;43042;-23
2023/06/10 03:46:06;;;;;;;5.68;5.03;;;;;;;;;;5038228;28;38696;-27
2023/06/10 03:48:34;;;;;;;5.03;4.53;;;;;;;;;;5044600;28;43839;-23
2023/06/10 03:51:02;;;;;;;6.45;5.20;;;;;;;;;;5045204;28;44522;-23
2023/06/10 03:53:31;;;;;;;5.55;5.03;;;;;;;;;;5019559;28;39114;-24
2023/06/10 03:56:00;;;;;;;5.22;4.72;;;;;;;;;;5036861;28;43694;-23
2023/06/10 03:58:28;;;;;;;6.30;4.55;;;;;;;;;;5026712;28;41487;-25
2023/06/10 04:00:57;;;;;;;5.15;4.65;;;;;;;;;;5024887;28;41455;-24
2023/06/10 04:03:33;;;;;;;4.70;4.30;;;;;;;;;;5005255;28;41399;-23
2023/06/10 04:06:01;;;;;;;5.10;4.60;;;;;;;;;;5019492;28;40046;-24
2023/06/10 04:08:29;;;;;;;5.03;4.28;;;;;;;;;;5020483;28;41051;-23
2023/06/10 04:10:57;;;;;;;5.07;4.53;;;;;;;;;;5044257;28;43585;-23
2023/06/10 04:13:28;;;;;;;5.05;4.50;;;;;;;;;;5058859;28;40169;-26
2023/06/10 04:15:59;;;;;;;5.25;4.75;;;;;;;;;;5061652;28;42397;-23
2023/06/10 04:18:27;;;;;;;5.47;4.85;;;;;;;;;;5063359;28;42960;-23
2023/06/10 04:20:58;;;;;;;5.50;4.80;;;;;;;;;;5057322;28;39943;-23
2023/06/10 04:23:26;;;;;;;5.70;5.10;;;;;;;;;;5062560;28;41277;-23
2023/06/10 04:25:54;;;;;;;5.45;4.40;;;;;;;;;;5049062;28;39028;-23
2023/06/10 04:28:24;;;;;;;6.25;4.80;;;;;;;;;;5062171;28;43169;-23
2023/06/10 04:30:53;;;;;;;5.63;4.70;;;;;;;;;;5064343;28;43980;-23
2023/06/10 04:33:22;;;;;;;6.30;5.15;;;;;;;;;;5063315;28;39575;-23
2023/06/10 04:35:50;;;;;;;5.40;4.63;;;;;;;;;;5047935;28;42121;-24
2023/06/10 04:38:21;;;;;;;5.53;4.40;;;;;;;;;;5062750;28;42777;-23
2023/06/10 04:40:49;;;;;;;7.55;4.50;;;;;;;;;;5063516;28;40729;-26
2023/06/10 04:43:18;;;;;;;6.72;4.60;;;;;;;;;;5056508;28;42062;-28
2023/06/10 04:45:46;;;;;;;5.13;4.57;;;;;;;;;;5053002;28;41599;-23
2023/06/10 04:48:16;;;;;;;4.78;4.00;;;;;;;;;;5062423;28;42298;-25
2023/06/10 04:50:44;;;;;;;6.00;4.60;;;;;;;;;;5056466;28;43300;-26
2023/06/10 04:53:12;;;;;;;6.75;4.65;;;;;;;;;;5045838;28;38713;-25
2023/06/10 04:55:44;;;;;;;6.75;4.97;;;;;;;;;;5061093;28;42055;-23
2023/06/10 04:58:13;;;;;;;6.70;4.30;;;;;;;;;;5062303;28;43267;-23
2023/06/10 05:00:41;;;;;;;5.30;4.53;;;;;;;;;;5068371;28;40275;-24
2023/06/10 05:03:09;;;;;;;6.03;4.70;;;;;;;;;;5068189;28;43662;-23
2023/06/10 05:05:38;;;;;;;5.45;4.43;;;;;;;;;;5068163;28;44100;-24
2023/06/10 05:08:06;;;;;;;5.63;4.55;;;;;;;;;;5068367;28;40144;-23
2023/06/10 05:10:35;;;;;;;5.85;4.80;;;;;;;;;;5067748;28;44469;-23
2023/06/10 05:13:03;;;;;;;4.60;3.92;;;;;;;;;;5067108;28;40604;-23
2023/06/10 05:15:32;;;;;;;5.38;4.65;;;;;;;;;;5067159;28;42572;-23
2023/06/10 05:18:02;;;;;;;5.43;4.43;;;;;;;;;;5067570;28;43473;-25
2023/06/10 05:20:30;;;;;;;5.05;4.55;;;;;;;;;;5053382;28;42476;-24
2023/06/10 05:23:00;;;;;;;7.68;4.82;;;;;;;;;;5067672;28;43328;-24
2023/06/10 05:25:29;;;;;;;5.72;5.00;;;;;;;;;;5066092;28;43470;-23
2023/06/10 05:27:57;;;;;;;5.43;4.80;;;;;;;;;;5052848;28;40945;-25
2023/06/10 05:30:26;;;;;;;5.47;4.40;;;;;;;;;;5061169;28;43471;-23
2023/06/10 05:32:55;;;;;;;5.80;4.40;;;;;;;;;;5067238;28;40347;-24
2023/06/10 05:35:24;;;;;;;4.68;4.28;;;;;;;;;;5067152;28;42542;-26
2023/06/10 05:37:52;;;;;;;5.15;4.65;;;;;;;;;;5063109;28;44455;-24
2023/06/10 05:40:21;;;;;;;5.32;4.80;;;;;;;;;;5066965;28;40626;-24
2023/06/10 05:42:49;;;;;;;6.18;4.50;;;;;;;;;;5067191;28;43751;-23
2023/06/10 05:45:17;;;;;;;6.57;4.57;;;;;;;;;;5065788;28;43986;-24
2023/06/10 05:47:45;;;;;;;4.70;4.15;;;;;;;;;;5067326;28;39979;-24
2023/06/10 05:50:13;;;;;;;4.95;4.45;;;;;;;;;;5067240;28;42457;-24
2023/06/10 05:52:41;;;;;;;4.88;4.40;;;;;;;;;;5067221;28;39692;-24
2023/06/10 05:55:10;;;;;;;6.10;4.63;;;;;;;;;;5054736;28;42969;-23
2023/06/10 05:57:42;;;;;;;6.00;4.50;;;;;;;;;;5065090;28;43559;-24
2023/06/10 06:00:10;;;;;;;6.05;4.25;;;;;;;;;;5066058;28;39907;-24
2023/06/10 06:02:42;;;;;;;4.95;4.45;;;;;;;;;;5058468;28;43191;-23
2023/06/10 06:05:10;;;;;;;5.55;4.93;;;;;;;;;;5065765;28;43231;-24
2023/06/10 06:07:39;;;;;;;4.82;4.40;;;;;;;;;;5066436;28;40105;-24
2023/06/10 06:10:07;;;;;;;5.30;4.70;;;;;;;;;;5065845;28;43642;-24
2023/06/10 06:12:35;;;;;;;4.78;4.28;;;;;;;;;;5062052;28;44368;-23
2023/06/10 06:15:05;;;;;;;5.05;4.43;;;;;;;;;;5040375;28;42589;-24
2023/06/10 06:17:33;;;;;;;5.30;4.50;;;;;;;;;;5066421;28;45862;-24
2023/06/10 06:20:01;;;;;;;4.72;4.25;;;;;;;;;;5066177;28;40566;-26
2023/06/10 06:22:29;;;;;;;5.53;4.70;;;;;;;;;;5066302;28;42444;-23
2023/06/10 06:24:57;;;;;;;5.22;4.72;;;;;;;;;;5065519;28;43426;-24
2023/06/10 06:27:25;;;;;;;5.20;4.68;;;;;;;;;;5057213;28;40567;-27
2023/06/10 06:29:53;;;;;;;5.15;4.57;;;;;;;;;;5064679;28;42709;-24
2023/06/10 06:32:24;;;;;;;5.50;4.63;;;;;;;;;;5065053;28;42694;-23
2023/06/10 06:34:54;;;;;;;5.88;4.47;;;;;;;;;;5061442;28;41072;-24
2023/06/10 06:37:22;;;;;;;5.30;4.53;;;;;;;;;;5058299;28;44714;-23
2023/06/10 06:39:51;;;;;;;5.57;4.40;;;;;;;;;;5048376;28;39923;-24
2023/06/10 06:42:19;;;;;;;4.63;4.20;;;;;;;;;;5061953;28;42593;-23
2023/06/10 06:44:56;;;;;;;4.82;4.30;;;;;;;;;;5047093;28;42596;-22
2023/06/10 06:47:26;;;;;;;4.88;4.38;;;;;;;;;;5066373;28;40203;-25
2023/06/10 06:49:54;;;;;;;5.18;4.35;;;;;;;;;;5066653;28;43645;-24
2023/06/10 06:52:22;;;;;;;5.30;4.32;;;;;;;;;;5065657;28;43534;-23
2023/06/10 06:54:50;;;;;;;4.63;4.15;;;;;;;;;;5052250;28;40941;-24
2023/06/10 06:57:18;;;;;;;5.25;4.55;;;;;;;;;;5050594;28;43756;-23
2023/06/10 06:59:46;;;;;;;6.85;4.32;;;;;;;;;;5047336;28;39657;-24
2023/06/10 07:02:14;;;;;;;4.95;4.13;;;;;;;;;;5066100;28;43374;-24
2023/06/10 07:04:44;;;;;;;5.20;4.10;;;;;;;;;;5065571;28;44462;-23
2023/06/10 07:07:12;;;;;;;5.03;4.30;;;;;;;;;;5065732;28;41329;-23
2023/06/10 07:09:40;;;;;;;4.97;3.88;;;;;;;;;;5048166;28;42941;-23
2023/06/10 07:12:08;;;;;;;4.78;4.38;;;;;;;;;;5065059;28;43160;-23
2023/06/10 07:14:36;;;;;;;4.28;3.88;;;;;;;;;;5065762;28;40628;-24
2023/06/10 07:17:04;;;;;;;4.13;3.72;;;;;;;;;;5051814;28;42334;-26
2023/06/10 07:19:32;;;;;;;5.22;4.15;;;;;;;;;;5065834;28;44350;-24
2023/06/10 07:22:02;;;;;;;4.85;4.22;;;;;;;;;;5064638;28;42942;-27
2023/06/10 07:24:30;;;;;;;4.22;3.83;;;;;;;;;;5059277;28;43378;-24
2023/06/10 07:26:58;;;;;;;4.43;3.88;;;;;;;;;;5066272;28;40006;-26
2023/06/10 07:29:26;;;;;;;4.68;4.18;;;;;;;;;;5053759;28;42599;-23
2023/06/10 07:31:54;;;;;;;4.10;3.70;;;;;;;;;;5065814;28;44164;-23
2023/06/10 07:34:22;;;;;;;3.90;3.55;;;;;;;;;;5052072;28;40916;-24
2023/06/10 07:36:49;;;;;;;4.22;3.90;;;;;;;;;;5066139;28;43006;-24
2023/06/10 07:39:19;;;;;;;4.05;3.65;;;;;;;;;;5063756;28;43687;-24
2023/06/10 07:41:48;;;;;;;4.30;3.90;;;;;;;;;;5065534;28;40577;-24
2023/06/10 07:44:16;;;;;;;6.05;3.63;;;;;;;;;;5063470;28;42810;-24
2023/06/10 07:46:45;;;;;;;4.82;3.50;;;;;;;;;;5065321;28;39851;-24
2023/06/10 07:49:13;;;;;;;4.30;3.50;;;;;;;;;;5055312;28;43145;-26
2023/06/10 07:51:41;;;;;;;5.75;4.28;;;;;;;;;;5064750;28;44508;-23
2023/06/10 07:54:09;;;;;;;4.50;4.10;;;;;;;;;;5056436;28;41436;-24
2023/06/10 07:56:38;;;;;;;4.40;3.88;;;;;;;;;;5059510;28;42935;-24
2023/06/10 07:59:06;;;;;;;4.25;3.85;;;;;;;;;;5056343;28;43498;-24
2023/06/10 08:01:35;;;;;;;4.45;4.03;;;;;;;;;;5064382;28;41364;-23
2023/06/10 08:04:04;;;;;;;4.10;3.70;;;;;;;;;;5064739;28;43572;-27
2023/06/10 08:06:32;;;;;;;4.70;4.20;;;;;;;;;;5065159;28;41308;-26
2023/06/10 08:09:00;;;;;;;4.30;3.80;;;;;;;;;;5063986;28;42890;-24
2023/06/10 08:11:29;;;;;;;4.32;3.80;;;;;;;;;;5063290;28;44029;-24
2023/06/10 08:13:58;;;;;;;4.47;4.05;;;;;;;;;;5057810;28;41543;-29
2023/06/10 08:16:26;;;;;;;4.75;3.95;;;;;;;;;;5064949;28;43307;-26
2023/06/10 08:18:54;;;;;;;5.35;3.75;;;;;;;;;;5040630;28;42723;-24
2023/06/10 08:21:22;;;;;;;4.47;4.07;;;;;;;;;;5064362;28;40514;-24
2023/06/10 08:23:53;;;;;;;5.18;3.50;;;;;;;;;;5040130;28;42350;-24
2023/06/10 08:26:21;;;;;;;4.13;3.67;;;;;;;;;;5050648;28;40517;-22
2023/06/10 08:28:49;;;;;;;5.25;3.92;;;;;;;;;;5054616;28;44269;-24
2023/06/10 08:31:18;;;;;;;4.10;3.70;;;;;;;;;;5057740;28;44481;-24
2023/06/10 08:33:46;;;;;;;5.03;3.72;;;;;;;;;;5052512;28;41260;-24
2023/06/10 08:36:14;;;;;;;3.67;3.38;;;;;;;;;;5062035;28;43127;-25
2023/06/10 08:38:42;;;;;;;4.07;3.63;;;;;;;;;;5063454;28;43011;-24
2023/06/10 08:41:10;;;;;;;4.80;3.75;;;;;;;;;;5063358;28;41178;-23
2023/06/10 08:43:40;;;;;;;4.75;3.83;;;;;;;;;;5044001;28;41493;-23
2023/06/10 08:46:09;;;;;;;4.45;4.03;;;;;;;;;;5064594;28;43711;-23
2023/06/10 08:48:40;;;;;;;4.18;3.78;;;;;;;;;;5064424;28;42896;-23
2023/06/10 08:51:07;;;;;;;4.15;3.60;;;;;;;;;;5045509;28;42400;-23
2023/06/10 08:53:35;;;;;;;4.25;3.42;;;;;;;;;;5062101;28;40350;-23
2023/06/10 08:56:04;;;;;;;4.78;4.20;;;;;;;;;;5052060;28;43292;-23
2023/06/10 08:58:33;;;;;;;4.35;3.95;;;;;;;;;;5057658;28;43388;-23
2023/06/10 09:01:00;;;;;;;4.00;3.70;;;;;;;;;;5055371;28;41094;-23
2023/06/10 09:03:28;;;;;;;4.43;3.72;;;;;;;;;;5044464;28;43644;-24
2023/06/10 09:05:58;;;;;;;4.30;3.72;;;;;;;;;;5063904;28;43944;-23
2023/06/10 09:08:26;;;;;;;3.63;3.33;;;;;;;;;;5064055;28;40298;-23
2023/06/10 09:10:54;;;;;;;4.50;3.78;;;;;;;;;;5061934;28;43512;-23
2023/06/10 09:13:21;;;;;;;4.13;3.50;;;;;;;;;;5061647;28;40394;-23
2023/06/10 09:15:51;;;;;;;3.53;3.22;;;;;;;;;;5064208;28;42611;-23
2023/06/10 09:18:18;;;;;;;4.15;3.75;;;;;;;;;;5062477;28;44216;-23
2023/06/10 09:20:46;;;;;;;3.45;3.15;;;;;;;;;;5064142;28;40470;-23
2023/06/10 09:23:16;;;;;;;4.20;3.80;;;;;;;;;;5063136;28;42284;-23
2023/06/10 09:25:44;;;;;;;4.95;3.88;;;;;;;;;;5044998;28;43586;-23
2023/06/10 09:28:15;;;;;;;5.45;3.72;;;;;;;;;;5061706;28;41640;-23
2023/06/10 09:30:43;;;;;;;4.18;3.78;;;;;;;;;;5057756;28;42832;-23
2023/06/10 09:33:11;;;;;;;4.43;4.03;;;;;;;;;;5055421;28;40619;-23
2023/06/10 09:35:45;;;;;;;4.40;3.50;;;;;;;;;;5052780;28;42771;-23
2023/06/10 09:38:13;;;;;;;4.10;3.60;;;;;;;;;;5059462;28;43845;-23
2023/06/10 09:40:50;;;;;;;4.50;3.90;;;;;;;;;;5063401;28;41380;-21
2023/06/10 09:43:18;;;;;;;3.63;3.10;;;;;;;;;;5059880;28;43184;-21
2023/06/10 09:45:48;;;;;;;3.83;3.53;;;;;;;;;;5065335;28;43567;-21
2023/06/10 09:48:16;;;;;;;4.55;3.85;;;;;;;;;;5065832;28;40987;-22
2023/06/10 09:50:44;;;;;;;4.55;3.88;;;;;;;;;;5066331;28;42465;-21
2023/06/10 09:53:12;;;;;;;4.07;3.47;;;;;;;;;;5067651;28;31495;-21
2023/06/10 09:55:40;;;;;;;5.20;3.83;;;;;;;;;;5066511;28;42492;-22
2023/06/10 09:58:09;;;;;;;3.63;3.28;;;;;;;;;;5063627;28;42999;-22
2023/06/10 10:00:37;;;;;;;4.07;3.67;;;;;;;;;;5055053;28;40421;-28
2023/06/10 10:03:06;;;;;;;4.20;3.42;;;;;;;;;;5066763;28;42761;-22
2023/06/10 10:05:34;;;;;;;3.75;3.22;;;;;;;;;;5066564;28;42994;-22
2023/06/10 10:08:02;;;;;;;3.85;3.45;;;;;;;;;;5066799;28;40464;-22
2023/06/10 10:10:30;;;;;;;3.90;3.05;;;;;;;;;;5065281;28;42377;-22
2023/06/10 10:12:58;;;;;;;3.67;3.35;;;;;;;;;;5065770;28;44051;-22
2023/06/10 10:15:29;;;;;;;4.50;3.78;;;;;;;;;;5061649;28;44256;-24
2023/06/10 10:17:59;;;;;;;5.05;3.40;;;;;;;;;;5058595;28;43758;-21
2023/06/10 10:20:28;;;;;;;4.88;3.40;;;;;;;;;;5066259;28;40039;-21
2023/06/10 10:22:57;;;;;;;5.03;3.50;;;;;;;;;;5065853;28;43353;-21
2023/06/10 10:25:25;;;;;;;3.63;3.30;;;;;;;;;;5066426;28;43984;-22
2023/06/10 10:27:55;;;;;;;3.60;3.30;;;;;;;;;;5067580;28;41927;-21
2023/06/10 10:30:23;;;;;;;5.80;4.00;;;;;;;;;;5050859;28;42676;-23
2023/06/10 10:33:04;;;;;;;4.18;3.53;;;;;;;;;;5066478;28;43150;-22
2023/06/10 10:35:37;;;;;;;4.55;3.97;;;;;;;;;;5061412;28;40621;-22
2023/06/10 10:38:04;;;;;;;3.60;3.30;;;;;;;;;;5066742;28;43323;-22
2023/06/10 10:40:33;;;;;;;4.20;3.80;;;;;;;;;;5063490;28;41400;-22
2023/06/10 10:43:01;;;;;;;4.63;3.63;;;;;;;;;;5029686;28;42623;-22
2023/06/10 10:45:29;;;;;;;3.72;3.33;;;;;;;;;;5061167;28;43570;-23
2023/06/10 10:47:58;;;;;;;4.20;2.90;;;;;;;;;;5065287;28;40354;-22
2023/06/10 10:50:27;;;;;;;4.75;3.20;;;;;;;;;;5061351;28;42317;-22
2023/06/10 10:52:55;;;;;;;4.57;3.15;;;;;;;;;;5066638;28;43193;-22
2023/06/10 10:55:24;;;;;;;5.30;3.72;;;;;;;;;;5050814;28;40072;-22
2023/06/10 10:57:56;;;;;;;3.55;3.25;;;;;;;;;;5047162;28;41835;-22
2023/06/10 11:00:30;;;;;;;5.82;3.50;;;;;;;;;;5063437;28;40084;-23
2023/06/10 11:03:00;;;;;;;4.13;3.58;;;;;;;;;;5065377;28;42646;-22
2023/06/10 11:05:36;;;;;;;3.70;3.20;;;;;;;;;;5053328;28;44008;-22
2023/06/10 11:08:04;;;;;;;3.78;3.30;;;;;;;;;;5052764;28;41029;-22
2023/06/10 11:10:32;;;;;;;5.28;3.63;;;;;;;;;;5055103;28;42988;-22
2023/06/10 11:13:00;;;;;;;4.82;3.65;;;;;;;;;;5064796;28;44451;-22
2023/06/10 11:15:28;;;;;;;4.18;3.78;;;;;;;;;;5059046;28;40423;-24
2023/06/10 11:18:10;;;;;;;4.88;3.53;;;;;;;;;;5065015;28;42750;-22
2023/06/10 11:20:45;;;;;;;3.72;3.13;;;;;;;;;;5066080;28;44649;-22
2023/06/10 11:23:25;;;;;;;4.43;3.35;;;;;;;;;;5059242;28;42180;-22
2023/06/10 11:25:58;;;;;;;4.32;3.75;;;;;;;;;;5064884;28;44509;-22
2023/06/10 11:28:28;;;;;;;4.20;3.70;;;;;;;;;;5049141;28;40218;-22
2023/06/10 11:30:57;;;;;;;3.30;3.03;;;;;;;;;;5065905;28;42176;-22
2023/06/10 11:33:27;;;;;;;4.57;3.65;;;;;;;;;;5064172;28;43038;-22
2023/06/10 11:35:55;;;;;;;4.00;3.25;;;;;;;;;;5062456;28;39785;-22
2023/06/10 11:38:23;;;;;;;4.93;3.75;;;;;;;;;;5059309;28;43657;-22
2023/06/10 11:40:50;;;;;;;4.30;3.60;;;;;;;;;;5048428;28;43875;-22
2023/06/10 11:43:19;;;;;;;3.80;3.50;;;;;;;;;;5059432;28;40494;-22
2023/06/10 11:45:46;;;;;;;4.05;3.53;;;;;;;;;;5054887;28;43373;-22
2023/06/10 11:48:14;;;;;;;4.15;3.75;;;;;;;;;;5064282;28;40108;-22
2023/06/10 11:50:44;;;;;;;4.22;3.45;;;;;;;;;;5065208;28;43586;-22
2023/06/10 11:53:12;;;;;;;4.63;3.67;;;;;;;;;;5064348;28;43946;-23
2023/06/10 11:55:43;;;;;;;4.20;3.30;;;;;;;;;;5054220;28;40240;-22
2023/06/10 11:58:14;;;;;;;4.03;3.58;;;;;;;;;;5052891;28;43681;-22
2023/06/10 12:00:48;;;;;;;4.10;3.70;;;;;;;;;;5053927;28;43502;-22
2023/06/10 12:03:16;;;;;;;4.70;3.70;;;;;;;;;;5064354;28;40592;-22
2023/06/10 12:05:57;;;;;;;3.88;3.47;;;;;;;;;;5064704;28;43462;-22
2023/06/10 12:08:25;;;;;;;3.78;3.47;;;;;;;;;;5060957;28;40534;-22
2023/06/10 12:10:53;;;;;;;4.10;3.70;;;;;;;;;;5065675;28;44186;-22
2023/06/10 12:13:21;;;;;;;3.65;3.35;;;;;;;;;;5064092;28;44471;-22
2023/06/10 12:15:49;;;;;;;3.80;3.50;;;;;;;;;;5064169;28;40520;-22
2023/06/10 12:18:17;;;;;;;3.83;3.35;;;;;;;;;;5064426;28;43014;-23
2023/06/10 12:20:45;;;;;;;5.30;4.15;;;;;;;;;;5064973;28;43545;-22
2023/06/10 12:23:14;;;;;;;4.18;3.50;;;;;;;;;;5063691;28;41395;-22
2023/06/10 12:25:50;;;;;;;4.30;3.90;;;;;;;;;;5063878;28;42652;-22
2023/06/10 12:28:19;;;;;;;3.78;3.40;;;;;;;;;;5058459;28;40342;-22
2023/06/10 12:30:46;;;;;;;4.05;3.60;;;;;;;;;;5063271;28;42908;-22
2023/06/10 12:33:17;;;;;;;4.38;3.88;;;;;;;;;;5063282;28;43112;-22
2023/06/10 12:35:48;;;;;;;4.20;3.58;;;;;;;;;;5060338;28;41490;-22
2023/06/10 12:38:24;;;;;;;4.13;3.72;;;;;;;;;;5059938;28;42509;-21
2023/06/10 12:40:52;;;;;;;8.02;4.10;;;;;;;;;;5058018;28;43288;-22
2023/06/10 12:43:20;;;;;;;4.30;3.88;;;;;;;;;;5062575;28;40135;-22
2023/06/10 12:45:48;;;;;;;4.32;3.92;;;;;;;;;;5057437;28;43631;-22
2023/06/10 12:48:19;;;;;;;3.88;3.30;;;;;;;;;;5058885;28;43323;-22
2023/06/10 12:50:51;;;;;;;4.88;3.70;;;;;;;;;;5046428;28;42276;-22
2023/06/10 12:53:19;;;;;;;4.18;3.83;;;;;;;;;;5061528;28;44369;-22
2023/06/10 12:55:48;;;;;;;4.68;3.83;;;;;;;;;;5051840;28;41292;-22
2023/06/10 12:58:16;;;;;;;5.05;4.18;;;;;;;;;;5063913;28;42727;-22
2023/06/10 13:00:44;;;;;;;5.00;3.63;;;;;;;;;;5062504;28;44328;-22
2023/06/10 13:03:12;;;;;;;4.10;3.70;;;;;;;;;;5064001;28;40212;-22
2023/06/10 13:05:40;;;;;;;4.55;4.00;;;;;;;;;;5059906;28;42608;-22
2023/06/10 13:08:09;;;;;;;5.45;4.32;;;;;;;;;;5052005;28;43878;-22
2023/06/10 13:10:37;;;;;;;3.72;3.17;;;;;;;;;;5057409;28;41112;-22
2023/06/10 13:13:07;;;;;;;4.30;3.90;;;;;;;;;;5046401;28;43592;-24
2023/06/10 13:15:36;;;;;;;3.95;3.42;;;;;;;;;;5059429;28;41047;-24
2023/06/10 13:18:10;;;;;;;4.85;3.95;;;;;;;;;;5062767;28;42644;-24
2023/06/10 13:20:38;;;;;;;3.80;3.50;;;;;;;;;;5067537;28;43952;-22
2023/06/10 13:23:06;;;;;;;4.68;3.75;;;;;;;;;;5066742;28;41220;-22
2023/06/10 13:25:34;;;;;;;5.25;4.22;;;;;;;;;;5060905;28;43267;-22
2023/06/10 13:28:02;;;;;;;3.75;3.45;;;;;;;;;;5066807;28;44298;-22
2023/06/10 13:30:31;;;;;;;3.95;3.55;;;;;;;;;;5067188;28;41002;-22
2023/06/10 13:32:59;;;;;;;4.88;3.83;;;;;;;;;;5067781;28;43296;-22
2023/06/10 13:35:27;;;;;;;7.90;4.22;;;;;;;;;;5047262;28;38990;-22
2023/06/10 13:37:55;;;;;;;4.32;3.92;;;;;;;;;;5065265;28;44347;-22
2023/06/10 13:40:23;;;;;;;4.35;3.95;;;;;;;;;;5064718;28;43654;-22
2023/06/10 13:42:52;;;;;;;4.20;3.80;;;;;;;;;;5065827;28;40489;-22
2023/06/10 13:45:20;;;;;;;4.57;3.83;;;;;;;;;;5048440;28;42001;-22
2023/06/10 13:47:49;;;;;;;4.55;4.15;;;;;;;;;;5053601;28;43376;-22
2023/06/10 13:50:17;;;;;;;4.57;3.85;;;;;;;;;;5066482;28;41587;-22
2023/06/10 13:52:45;;;;;;;4.90;4.35;;;;;;;;;;5065247;28;43709;-22
2023/06/10 13:55:13;;;;;;;4.25;3.83;;;;;;;;;;5049892;28;43323;-22
2023/06/10 13:57:41;;;;;;;4.55;4.15;;;;;;;;;;5058128;28;42994;-22
2023/06/10 14:00:10;;;;;;;5.63;3.97;;;;;;;;;;5061280;28;44007;-21
2023/06/10 14:02:38;;;;;;;5.15;4.57;;;;;;;;;;5066626;28;42106;-22
2023/06/10 14:05:09;;;;;;;6.45;4.28;;;;;;;;;;5066305;28;42546;-22
2023/06/10 14:07:38;;;;;;;4.20;3.80;;;;;;;;;;5052575;28;44106;-23
2023/06/10 14:10:08;;;;;;;4.07;3.67;;;;;;;;;;5066854;28;40892;-22
2023/06/10 14:12:35;;;;;;;4.03;3.63;;;;;;;;;;5052439;28;42677;-22
2023/06/10 14:15:04;;;;;;;4.10;3.80;;;;;;;;;;5065473;28;43357;-22
2023/06/10 14:17:32;;;;;;;4.40;3.70;;;;;;;;;;5047792;28;41650;-22
2023/06/10 14:20:00;;;;;;;4.60;3.83;;;;;;;;;;5064400;28;43134;-22
2023/06/10 14:22:29;;;;;;;4.60;4.20;;;;;;;;;;5065817;28;40319;-22
2023/06/10 14:24:57;;;;;;;4.65;3.97;;;;;;;;;;5065066;28;42617;-22
2023/06/10 14:27:25;;;;;;;4.75;4.32;;;;;;;;;;5060770;28;44886;-22
2023/06/10 14:29:53;;;;;;;5.18;4.45;;;;;;;;;;5052862;28;40496;-22
2023/06/10 14:32:21;;;;;;;5.03;4.53;;;;;;;;;;5066075;28;42617;-22
2023/06/10 14:34:49;;;;;;;4.53;4.13;;;;;;;;;;5050983;28;43579;-22
2023/06/10 14:37:17;;;;;;;4.75;4.25;;;;;;;;;;5059355;28;40925;-22
2023/06/10 14:39:46;;;;;;;4.53;4.13;;;;;;;;;;5045923;28;42511;-22
2023/06/10 14:42:14;;;;;;;4.22;3.83;;;;;;;;;;5054989;28;40392;-22
2023/06/10 14:44:42;;;;;;;4.20;3.80;;;;;;;;;;5050318;28;42845;-22
2023/06/10 14:47:10;;;;;;;4.50;4.10;;;;;;;;;;5064272;28;43717;-22
2023/06/10 14:49:38;;;;;;;5.10;4.22;;;;;;;;;;5065572;28;39877;-22
2023/06/10 14:52:06;;;;;;;4.45;4.05;;;;;;;;;;5047741;28;41672;-22
2023/06/10 14:54:34;;;;;;;6.55;5.28;;;;;;;;;;5054852;28;42415;-23